Time;durP1;ratioP1;P1;durP2;ratioP2;P2;SDS_P1;SDS_P2;PMS_P1;PMS_P2;Temp;Humidity;BMP_temperature;BMP_pressure;BME280_temperature;BME280_humidity;BME280_pressure;Samples;Min_cycle;Max_cycle;Signal;HPM_P1;HPM_P2
2021/06/27 00:01:30;;;;;;;72.40;33.72;;;;;;;16.53;100.00;102015.63;4954861;28;21144;-70
2021/06/27 00:03:58;;;;;;;71.80;32.67;;;;;;;16.49;100.00;102017.56;4957356;28;20070;-69
2021/06/27 00:06:26;;;;;;;76.63;34.08;;;;;;;16.46;100.00;102014.09;4956824;28;20075;-69
2021/06/27 00:08:53;;;;;;;77.47;33.72;;;;;;;16.40;100.00;102007.16;4954549;28;20071;-69
2021/06/27 00:11:24;;;;;;;71.63;33.28;;;;;;;16.39;100.00;102016.16;4958209;28;20091;-70
2021/06/27 00:13:52;;;;;;;76.95;31.77;;;;;;;16.42;100.00;102011.53;4956310;28;20067;-69
2021/06/27 00:16:20;;;;;;;73.97;33.70;;;;;;;16.40;100.00;102015.22;4955520;28;20376;-69
2021/06/27 00:18:50;;;;;;;73.38;33.50;;;;;;;16.35;100.00;102007.31;4959648;28;20063;-69
2021/06/27 00:21:18;;;;;;;72.15;32.60;;;;;;;16.37;100.00;102012.66;4957083;28;20055;-69
2021/06/27 00:23:47;;;;;;;81.68;36.85;;;;;;;16.36;100.00;102008.19;4955273;28;20142;-69
2021/06/27 00:26:17;;;;;;;75.35;32.22;;;;;;;16.31;100.00;102002.09;4954046;28;20063;-69
2021/06/27 00:28:46;;;;;;;70.28;34.13;;;;;;;16.27;100.00;102006.72;4957463;28;20066;-69
2021/06/27 00:31:14;;;;;;;81.55;33.95;;;;;;;16.24;100.00;101998.75;4949710;28;20563;-69
2021/06/27 00:33:43;;;;;;;81.10;35.92;;;;;;;16.22;100.00;102008.69;4955896;28;20073;-69
2021/06/27 00:36:12;;;;;;;75.68;34.10;;;;;;;16.20;100.00;102013.28;4954252;28;20595;-69
2021/06/27 00:38:40;;;;;;;85.38;35.80;;;;;;;16.19;100.00;102006.13;4954050;28;20070;-69
2021/06/27 00:41:09;;;;;;;82.43;38.13;;;;;;;16.16;100.00;102001.75;4956239;28;20140;-69
2021/06/27 00:43:38;;;;;;;90.47;37.92;;;;;;;16.19;100.00;102007.03;4958716;28;20367;-69
2021/06/27 00:46:05;;;;;;;81.05;35.92;;;;;;;16.17;100.00;102005.31;4953303;28;20067;-69
2021/06/27 00:48:33;;;;;;;84.82;37.35;;;;;;;16.13;100.00;102012.63;4956810;28;21584;-69
2021/06/27 00:51:01;;;;;;;75.32;33.88;;;;;;;16.11;100.00;102008.25;4954153;28;20086;-70
2021/06/27 00:53:31;;;;;;;88.22;37.13;;;;;;;16.10;100.00;102009.16;4957199;28;20117;-69
2021/06/27 00:55:58;;;;;;;82.22;35.50;;;;;;;16.11;100.00;102010.94;4955001;28;20375;-70
2021/06/27 00:58:28;;;;;;;81.68;37.67;;;;;;;16.06;100.00;102003.00;4958456;28;20065;-70
2021/06/27 01:00:56;;;;;;;81.88;33.70;;;;;;;16.03;100.00;101998.59;4958049;28;20087;-71
2021/06/27 01:03:25;;;;;;;77.32;33.72;;;;;;;16.01;100.00;102000.47;4961257;28;20181;-69
2021/06/27 01:05:54;;;;;;;80.05;37.63;;;;;;;15.99;100.00;101988.91;4958377;28;20133;-69
2021/06/27 01:08:22;;;;;;;82.00;36.50;;;;;;;16.00;100.00;101987.94;4956554;28;20138;-68
2021/06/27 01:10:52;;;;;;;87.50;35.63;;;;;;;16.01;100.00;101989.72;4954671;28;20066;-70
2021/06/27 01:13:21;;;;;;;80.97;36.30;;;;;;;16.01;100.00;101992.41;4955144;28;20321;-70
2021/06/27 01:15:50;;;;;;;90.97;36.72;;;;;;;15.98;100.00;101986.25;4955716;28;20459;-70
2021/06/27 01:18:18;;;;;;;91.28;36.65;;;;;;;15.96;100.00;101983.63;4955200;28;20043;-69
2021/06/27 01:20:47;;;;;;;93.00;39.22;;;;;;;15.94;100.00;101979.25;4959175;28;20090;-69
2021/06/27 01:23:18;;;;;;;92.18;38.35;;;;;;;15.93;100.00;101975.66;4955181;28;20067;-69
2021/06/27 01:25:50;;;;;;;86.30;37.38;;;;;;;15.93;100.00;101967.56;4957199;28;20082;-70
2021/06/27 01:28:18;;;;;;;91.78;38.63;;;;;;;15.92;100.00;101973.91;4953174;28;20105;-70
2021/06/27 01:30:46;;;;;;;92.90;36.92;;;;;;;15.92;100.00;101971.22;4955556;28;20090;-70
2021/06/27 01:33:17;;;;;;;90.00;40.05;;;;;;;15.88;100.00;101972.25;4954579;28;20383;-69
2021/06/27 01:35:46;;;;;;;89.18;39.22;;;;;;;15.85;100.00;101972.34;4953649;28;20364;-70
2021/06/27 01:38:17;;;;;;;87.43;37.05;;;;;;;15.85;100.00;101966.97;4949778;28;20062;-70
2021/06/27 01:40:45;;;;;;;87.88;39.05;;;;;;;15.80;100.00;101972.53;4954590;28;20071;-69
2021/06/27 01:43:15;;;;;;;88.10;35.15;;;;;;;15.79;100.00;101961.84;4953777;28;20414;-70
2021/06/27 01:45:49;;;;;;;81.57;36.15;;;;;;;15.78;100.00;101963.66;4958183;28;20564;-70
2021/06/27 01:48:18;;;;;;;86.30;39.25;;;;;;;15.77;100.00;101961.88;4951827;28;20120;-70
2021/06/27 01:50:49;;;;;;;97.47;39.97;;;;;;;15.74;100.00;101967.34;4955836;28;20281;-70
2021/06/27 01:53:21;;;;;;;87.70;37.88;;;;;;;15.74;100.00;101964.66;4954686;28;20113;-69
2021/06/27 01:56:04;;;;;;;89.65;40.13;;;;;;;15.72;100.00;101968.34;4953867;28;20303;-70
2021/06/27 01:58:32;;;;;;;99.70;40.55;;;;;;;15.70;100.00;101965.72;4954360;28;20074;-70
2021/06/27 02:01:00;;;;;;;100.38;38.10;;;;;;;15.70;100.00;101963.00;4957451;28;20059;-70
2021/06/27 02:03:28;;;;;;;87.57;38.92;;;;;;;15.71;100.00;101964.75;4954082;28;20830;-69
2021/06/27 02:05:56;;;;;;;90.88;39.15;;;;;;;15.70;100.00;101965.72;4957811;28;20062;-70
2021/06/27 02:08:31;;;;;;;84.78;36.50;;;;;;;15.66;100.00;101966.72;4955156;28;20066;-69
2021/06/27 02:10:59;;;;;;;91.95;39.35;;;;;;;15.64;100.00;101963.22;4955376;28;20154;-70
2021/06/27 02:13:26;;;;;;;83.07;35.92;;;;;;;15.64;100.00;101965.91;4957147;28;20070;-70
2021/06/27 02:15:54;;;;;;;86.18;38.25;;;;;;;15.63;100.00;101964.13;4952506;28;20094;-70
2021/06/27 02:18:29;;;;;;;91.63;40.47;;;;;;;15.61;100.00;101964.22;4955213;28;20063;-70
2021/06/27 02:20:58;;;;;;;86.60;37.55;;;;;;;15.60;100.00;101966.97;4909052;28;20104;-70
2021/06/27 02:23:28;;;;;;;91.78;38.70;;;;;;;15.58;100.00;101971.50;4960365;28;20095;-70
2021/06/27 02:25:56;;;;;;;81.75;39.80;;;;;;;15.60;100.00;101965.16;4954458;28;20109;-69
2021/06/27 02:28:24;;;;;;;86.38;37.70;;;;;;;15.57;100.00;101967.06;4954287;28;20067;-69
2021/06/27 02:30:53;;;;;;;80.47;37.28;;;;;;;15.55;100.00;101969.81;4953487;28;20070;-70
2021/06/27 02:33:21;;;;;;;85.35;37.60;;;;;;;15.56;100.00;101965.28;4952876;28;20306;-70
2021/06/27 02:35:50;;;;;;;92.57;41.00;;;;;;;15.55;100.00;101968.94;4954104;28;20121;-70
2021/06/27 02:38:18;;;;;;;86.85;38.90;;;;;;;15.56;100.00;101971.56;4954029;28;20067;-69
2021/06/27 02:40:47;;;;;;;87.15;40.00;;;;;;;15.56;100.00;101968.00;4930526;28;20062;-69
2021/06/27 02:43:17;;;;;;;84.00;38.58;;;;;;;15.56;100.00;101966.19;4962464;28;20113;-69
2021/06/27 02:45:45;;;;;;;87.97;38.20;;;;;;;15.53;100.00;101963.63;4957945;28;20071;-70
2021/06/27 02:48:13;;;;;;;92.68;40.38;;;;;;;15.51;100.00;101962.78;4954417;28;20098;-69
2021/06/27 02:50:42;;;;;;;87.75;37.58;;;;;;;15.49;100.00;101959.25;4952701;28;20373;-70
2021/06/27 02:53:10;;;;;;;93.90;39.95;;;;;;;15.46;100.00;101960.25;4955554;28;20380;-70
2021/06/27 02:55:39;;;;;;;85.70;38.35;;;;;;;15.44;100.00;101950.47;4954950;28;20184;-69
2021/06/27 02:58:08;;;;;;;87.20;37.67;;;;;;;15.44;100.00;101948.69;4952116;28;20548;-69
2021/06/27 03:00:36;;;;;;;82.47;37.78;;;;;;;15.47;100.00;101950.38;4954807;28;20513;-69
2021/06/27 03:03:04;;;;;;;78.10;34.83;;;;;;;15.47;100.00;101950.38;4953956;28;20165;-68
2021/06/27 03:05:33;;;;;;;89.35;38.50;;;;;;;15.46;100.00;101945.91;4956059;28;20051;-69
2021/06/27 03:08:00;;;;;;;82.25;38.10;;;;;;;15.46;100.00;101943.22;4951209;28;20067;-69
2021/06/27 03:10:28;;;;;;;90.90;38.90;;;;;;;15.42;100.00;101936.19;4952380;28;20351;-69
2021/06/27 03:12:55;;;;;;;81.43;39.13;;;;;;;15.42;100.00;101931.69;4952439;28;20066;-69
2021/06/27 03:15:25;;;;;;;84.80;35.72;;;;;;;15.45;100.00;101936.09;4953697;28;20131;-69
2021/06/27 03:17:52;;;;;;;88.38;40.65;;;;;;;15.42;100.00;101931.69;4953098;28;20063;-69
2021/06/27 03:20:20;;;;;;;80.53;36.22;;;;;;;15.42;100.00;101931.69;4956304;28;20075;-69
2021/06/27 03:22:48;;;;;;;91.63;40.42;;;;;;;15.44;100.00;101928.94;4949572;28;20114;-69
2021/06/27 03:25:16;;;;;;;86.63;39.53;;;;;;;15.42;nan;101929.00;4953743;28;20078;-70
2021/06/27 03:27:44;;;;;;;91.32;40.17;;;;;;;15.41;100.00;101921.88;4953088;28;20141;-71
2021/06/27 03:30:13;;;;;;;90.80;40.30;;;;;;;15.41;nan;101921.88;4953682;28;20062;-69
2021/06/27 03:32:43;;;;;;;91.43;40.33;;;;;;;15.40;100.00;101916.56;4951850;28;20107;-70
2021/06/27 03:35:12;;;;;;;93.72;38.80;;;;;;;15.42;100.00;101920.94;4957386;28;20047;-69
2021/06/27 03:37:48;;;;;;;91.90;40.17;;;;;;;15.42;100.00;101920.06;4955596;28;20118;-68
2021/06/27 03:40:17;;;;;;;94.72;39.97;;;;;;;15.41;100.00;101919.19;4958329;28;20112;-70
2021/06/27 03:42:45;;;;;;;83.90;38.58;;;;;;;15.42;100.00;101920.06;4956863;28;20097;-70
2021/06/27 03:45:14;;;;;;;84.78;40.72;;;;;;;15.43;100.00;101917.31;4958449;28;20118;-70
2021/06/27 03:47:44;;;;;;;94.25;40.45;;;;;;;15.44;100.00;101918.19;4960232;28;20061;-69
2021/06/27 03:50:13;;;;;;;85.85;37.80;;;;;;;15.44;100.00;101921.78;4954497;28;20121;-70
2021/06/27 03:52:41;;;;;;;86.18;38.72;;;;;;;15.43;100.00;101919.16;4961874;28;20457;-71
2021/06/27 03:55:11;;;;;;;88.55;40.03;;;;;;;15.44;100.00;101919.09;4954070;28;20121;-70
2021/06/27 03:57:38;;;;;;;95.35;41.28;;;;;;;15.42;100.00;101922.75;4960360;28;20113;-70
2021/06/27 04:00:10;;;;;;;94.90;42.50;;;;;;;15.45;100.00;101915.44;4954039;28;20062;-71
2021/06/27 04:02:37;;;;;;;88.70;39.35;;;;;;;15.47;100.00;101928.84;4959723;28;20047;-70
2021/06/27 04:05:08;;;;;;;86.25;38.78;;;;;;;15.49;100.00;101921.59;4955480;28;20067;-70
2021/06/27 04:07:36;;;;;;;91.05;42.60;;;;;;;15.52;100.00;101923.31;4959442;28;20235;-71
2021/06/27 04:10:05;;;;;;;91.07;41.03;;;;;;;15.52;100.00;101918.81;4956834;28;20067;-70
2021/06/27 04:12:33;;;;;;;95.10;41.22;;;;;;;15.55;100.00;101921.38;4958679;28;20145;-71
2021/06/27 04:15:01;;;;;;;101.07;44.60;;;;;;;15.60;100.00;101914.03;4953956;28;20118;-71
2021/06/27 04:17:29;;;;;;;91.05;39.20;;;;;;;15.66;100.00;101910.22;4959755;28;20047;-70
2021/06/27 04:19:57;;;;;;;102.10;43.20;;;;;;;15.71;100.00;101902.88;4958919;28;20062;-70
2021/06/27 04:22:26;;;;;;;96.03;42.63;;;;;;;15.79;100.00;101905.31;4957515;28;20113;-71
2021/06/27 04:24:54;;;;;;;98.60;43.17;;;;;;;15.85;100.00;101900.59;4961412;28;20094;-73
2021/06/27 04:27:22;;;;;;;97.97;45.10;;;;;;;15.94;100.00;101906.56;4960513;28;20066;-73
2021/06/27 04:29:49;;;;;;;103.30;43.78;;;;;;;16.02;100.00;101897.28;4954483;28;20063;-71
2021/06/27 04:32:17;;;;;;;103.85;42.97;;;;;;;16.09;100.00;101900.59;4960488;28;20098;-69
2021/06/27 04:34:45;;;;;;;102.45;42.47;;;;;;;16.18;100.00;101894.84;4953218;28;20067;-70
2021/06/27 04:37:12;;;;;;;98.55;43.22;;;;;;;16.28;100.00;101890.00;4957606;28;20071;-70
2021/06/27 04:39:41;;;;;;;102.53;43.58;;;;;;;16.40;100.00;101889.50;4959099;28;20074;-70
2021/06/27 04:42:10;;;;;;;98.45;43.33;;;;;;;16.52;100.00;101884.56;4957536;28;20089;-69
2021/06/27 04:44:38;;;;;;;99.88;42.25;;;;;;;16.66;100.00;101884.00;4956491;28;20402;-70
2021/06/27 04:47:08;;;;;;;92.43;42.55;;;;;;;16.80;100.00;101889.69;4954262;28;20117;-70
2021/06/27 04:49:36;;;;;;;97.93;43.97;;;;;;;16.88;100.00;101884.88;4955419;28;20204;-69
2021/06/27 04:52:04;;;;;;;86.70;41.70;;;;;;;16.96;100.00;101882.75;4958729;28;20355;-70
2021/06/27 04:54:32;;;;;;;97.57;43.42;;;;;;;16.95;99.50;101875.59;4956606;28;20130;-70
2021/06/27 04:57:01;;;;;;;86.95;41.53;;;;;;;16.97;99.61;101871.03;4954759;28;20070;-74
2021/06/27 04:59:30;;;;;;;88.82;40.47;;;;;;;16.96;99.55;101880.06;4959496;28;20501;-74
2021/06/27 05:01:57;;;;;;;85.63;41.38;;;;;;;16.96;99.31;101876.50;4956619;28;20066;-74
2021/06/27 05:04:28;;;;;;;84.00;40.67;;;;;;;16.96;99.35;101874.66;4957225;28;20059;-74
2021/06/27 05:06:56;;;;;;;81.55;39.17;;;;;;;17.00;99.39;101872.72;4953473;28;20066;-73
2021/06/27 05:09:24;;;;;;;89.75;40.85;;;;;;;17.03;99.17;101874.41;4959395;28;20082;-73
2021/06/27 05:11:51;;;;;;;91.32;42.95;;;;;;;16.98;99.00;101875.47;4953847;28;20067;-74
2021/06/27 05:14:21;;;;;;;90.00;40.75;;;;;;;17.02;99.23;101862.72;4956201;28;20063;-74
2021/06/27 05:16:48;;;;;;;100.18;40.50;;;;;;;17.07;98.84;101873.34;4957047;28;20094;-75
2021/06/27 05:19:16;;;;;;;83.70;38.45;;;;;;;17.09;98.27;101860.66;4957249;28;20066;-74
2021/06/27 05:21:44;;;;;;;91.75;40.92;;;;;;;17.13;97.98;101865.00;4955087;28;20047;-74
2021/06/27 05:24:11;;;;;;;88.25;40.30;;;;;;;17.14;98.02;101866.72;4958703;28;20066;-75
2021/06/27 05:26:39;;;;;;;88.18;39.40;;;;;;;17.13;97.44;101862.28;4956114;28;20067;-73
2021/06/27 05:29:07;;;;;;;86.50;40.97;;;;;;;17.18;97.38;101862.97;4956800;28;20093;-71
2021/06/27 05:31:36;;;;;;;87.90;41.25;;;;;;;17.21;97.02;101865.50;4955934;28;20149;-73
2021/06/27 05:34:04;;;;;;;81.68;38.42;;;;;;;17.26;96.73;101857.22;4956900;28;20075;-73
2021/06/27 05:36:37;;;;;;;88.68;41.38;;;;;;;17.38;96.37;101862.06;4956199;28;20462;-73
2021/06/27 05:39:06;;;;;;;84.28;42.72;;;;;;;17.51;95.60;101846.22;4953763;28;20055;-73
2021/06/27 05:41:34;;;;;;;93.90;39.40;;;;;;;17.78;95.56;101854.00;4956302;28;20251;-74
2021/06/27 05:44:02;;;;;;;86.60;42.42;;;;;;;17.91;93.01;101839.00;4957242;28;20071;-74
2021/06/27 05:46:30;;;;;;;75.72;40.20;;;;;;;18.08;92.67;101849.00;4954862;28;20304;-73
2021/06/27 05:49:02;;;;;;;84.93;39.60;;;;;;;18.11;92.37;101841.63;4953066;28;20063;-73
2021/06/27 05:51:33;;;;;;;76.80;38.60;;;;;;;18.10;92.14;101844.44;4958174;28;20484;-74
2021/06/27 05:54:01;;;;;;;81.07;39.47;;;;;;;18.07;92.14;101845.44;4954410;28;20067;-73
2021/06/27 05:56:28;;;;;;;83.93;40.55;;;;;;;18.04;91.54;101855.50;4955403;28;20362;-74
2021/06/27 05:58:56;;;;;;;79.47;38.47;;;;;;;18.12;92.17;101853.31;4954744;28;20070;-73
2021/06/27 06:01:24;;;;;;;83.25;40.65;;;;;;;18.18;91.40;101844.91;4959530;28;20453;-74
2021/06/27 06:03:52;;;;;;;81.82;38.63;;;;;;;18.26;91.44;101848.13;4956988;28;20047;-68
2021/06/27 06:06:22;;;;;;;74.85;38.95;;;;;;;18.28;89.94;101848.91;4961355;28;20070;-75
2021/06/27 06:08:49;;;;;;;76.15;37.65;;;;;;;18.38;90.64;101852.06;4956701;28;20070;-73
2021/06/27 06:11:18;;;;;;;78.80;37.92;;;;;;;18.31;89.97;101860.53;4957186;28;20066;-73
2021/06/27 06:13:46;;;;;;;78.63;39.45;;;;;;;18.28;89.54;101857.00;4952839;28;20074;-75
2021/06/27 06:16:14;;;;;;;75.72;38.83;;;;;;;18.34;89.38;101852.25;4954289;28;20061;-73
2021/06/27 06:18:43;;;;;;;70.68;37.17;;;;;;;18.33;89.39;101848.69;4955629;28;20481;-71
2021/06/27 06:21:12;;;;;;;73.20;38.42;;;;;;;18.28;88.82;101854.31;4956856;28;20125;-71
2021/06/27 06:23:42;;;;;;;71.68;37.85;;;;;;;18.31;89.13;101856.00;4956693;28;20378;-72
2021/06/27 06:26:11;;;;;;;69.80;36.05;;;;;;;18.36;89.27;101850.38;4953170;28;20105;-72
2021/06/27 06:28:40;;;;;;;72.85;38.00;;;;;;;18.41;88.98;101857.31;4957464;28;20315;-73
2021/06/27 06:31:09;;;;;;;68.95;37.70;;;;;;;18.42;88.56;101850.06;4954616;28;20150;-69
2021/06/27 06:33:38;;;;;;;69.97;39.85;;;;;;;18.47;88.61;101842.63;4957035;28;20449;-69
2021/06/27 06:36:07;;;;;;;67.50;36.83;;;;;;;18.58;88.44;101850.22;4952011;28;20121;-69
2021/06/27 06:38:34;;;;;;;73.05;37.13;;;;;;;18.69;88.74;101853.22;4954829;28;20434;-70
2021/06/27 06:41:04;;;;;;;70.68;36.75;;;;;;;18.74;88.06;101855.72;4956598;28;20378;-70
2021/06/27 06:43:31;;;;;;;71.55;37.10;;;;;;;18.81;87.61;101854.44;4954082;28;20444;-69
2021/06/27 06:46:01;;;;;;;74.38;37.40;;;;;;;18.81;86.35;101855.34;4952566;28;21642;-71
2021/06/27 06:48:29;;;;;;;67.25;35.30;;;;;;;18.91;86.61;101847.63;4955442;28;20066;-69
2021/06/27 06:50:57;;;;;;;63.95;34.03;;;;;;;18.83;85.54;101850.75;4952899;28;20438;-73
2021/06/27 06:53:24;;;;;;;73.70;37.53;;;;;;;18.84;86.07;101846.22;4956212;28;20513;-72
2021/06/27 06:55:52;;;;;;;64.40;35.03;;;;;;;18.94;85.75;101842.09;4953846;28;20322;-72
2021/06/27 06:58:21;;;;;;;69.03;35.13;;;;;;;18.95;85.04;101849.25;4955939;28;20062;-69
2021/06/27 07:00:50;;;;;;;62.42;34.88;;;;;;;19.02;84.97;101845.28;4954154;28;20094;-68
2021/06/27 07:03:17;;;;;;;65.28;35.10;;;;;;;19.05;84.91;101849.63;4955555;28;20067;-68
2021/06/27 07:05:45;;;;;;;56.35;33.42;;;;;;;19.07;85.01;101849.56;4956615;28;20141;-68
2021/06/27 07:08:13;;;;;;;63.95;34.47;;;;;;;19.07;85.01;101853.16;4954748;28;20062;-72
2021/06/27 07:10:42;;;;;;;66.75;35.78;;;;;;;19.15;84.31;101856.31;4954255;28;20062;-72
2021/06/27 07:13:10;;;;;;;57.45;33.90;;;;;;;19.18;83.66;101850.75;4951433;28;20133;-72
2021/06/27 07:15:39;;;;;;;63.08;34.35;;;;;;;19.19;84.01;101852.50;4955194;28;20047;-72
2021/06/27 07:18:07;;;;;;;64.22;33.63;;;;;;;19.27;83.94;101856.63;4952581;28;20106;-72
2021/06/27 07:20:35;;;;;;;60.63;32.30;;;;;;;19.34;83.22;101855.34;4954568;28;20106;-73
2021/06/27 07:23:03;;;;;;;63.17;33.65;;;;;;;19.35;83.14;101859.81;4953196;28;20059;-75
2021/06/27 07:25:31;;;;;;;59.20;32.05;;;;;;;19.45;83.19;101857.50;4957921;28;20059;-73
2021/06/27 07:27:59;;;;;;;61.28;34.00;;;;;;;19.51;82.89;101854.44;4950568;28;20054;-74
2021/06/27 07:30:27;;;;;;;61.50;32.90;;;;;;;19.56;82.29;101849.66;4955466;28;20141;-72
2021/06/27 07:32:56;;;;;;;62.53;34.78;;;;;;;19.49;82.12;101857.22;4955220;28;20044;-69
2021/06/27 07:35:24;;;;;;;62.90;33.10;;;;;;;19.65;81.61;101857.31;4954732;28;20067;-69
2021/06/27 07:37:51;;;;;;;65.55;35.05;;;;;;;19.60;81.31;101852.13;4952378;28;20122;-69
2021/06/27 07:40:19;;;;;;;53.60;31.70;;;;;;;19.78;81.20;101849.41;4957013;28;20090;-72
2021/06/27 07:42:49;;;;;;;61.58;32.38;;;;;;;19.85;80.77;101849.94;4953602;28;20094;-71
2021/06/27 07:45:18;;;;;;;56.97;31.15;;;;;;;19.82;79.89;101848.28;4961075;28;20137;-73
2021/06/27 07:47:45;;;;;;;56.42;32.13;;;;;;;19.89;79.69;101851.53;4952870;28;20466;-73
2021/06/27 07:50:15;;;;;;;56.50;32.80;;;;;;;20.10;79.62;101850.31;4954633;28;20074;-69
2021/06/27 07:52:43;;;;;;;55.25;31.60;;;;;;;20.20;79.05;101858.81;4953369;28;20070;-69
2021/06/27 07:55:11;;;;;;;55.58;30.45;;;;;;;20.34;78.00;101844.47;4956527;28;20067;-69
2021/06/27 07:57:39;;;;;;;54.17;31.98;;;;;;;20.33;77.86;101857.16;4953966;28;20074;-68
2021/06/27 08:00:10;;;;;;;60.00;32.45;;;;;;;20.39;77.26;101857.75;4953528;28;20375;-73
2021/06/27 08:02:38;;;;;;;56.58;31.55;;;;;;;20.65;77.12;101854.47;4954019;28;20385;-73
2021/06/27 08:05:07;;;;;;;54.70;31.25;;;;;;;20.74;74.31;101853.03;4954018;28;20465;-73
2021/06/27 08:07:36;;;;;;;48.40;28.20;;;;;;;20.98;75.06;101857.97;4955258;28;20046;-73
2021/06/27 08:10:06;;;;;;;50.28;29.50;;;;;;;21.24;73.19;101853.66;4952304;28;20073;-73
2021/06/27 08:12:34;;;;;;;49.15;28.70;;;;;;;21.47;70.96;101855.00;4955932;28;20086;-73
2021/06/27 08:15:03;;;;;;;42.45;26.30;;;;;;;21.89;69.59;101855.09;4953057;28;20069;-69
2021/06/27 08:17:34;;;;;;;45.92;26.23;;;;;;;22.18;67.25;101858.66;4956564;28;20062;-68
2021/06/27 08:20:02;;;;;;;44.85;26.75;;;;;;;22.52;65.62;101853.75;4952795;28;20067;-71
2021/06/27 08:22:30;;;;;;;44.05;25.63;;;;;;;22.90;65.43;101850.28;4956924;28;20063;-70
2021/06/27 08:24:59;;;;;;;38.00;24.33;;;;;;;23.38;64.41;101863.34;4956245;28;20110;-70
2021/06/27 08:27:27;;;;;;;40.38;24.95;;;;;;;23.55;63.93;101862.16;4959257;28;20075;-70
2021/06/27 08:29:55;;;;;;;44.97;25.98;;;;;;;23.62;62.69;101866.22;4958947;28;20072;-69
2021/06/27 08:32:22;;;;;;;42.65;26.48;;;;;;;23.52;62.16;101865.97;4955675;28;20071;-70
2021/06/27 08:34:50;;;;;;;42.08;26.85;;;;;;;23.64;62.03;101859.66;4953604;28;20063;-69
2021/06/27 08:37:18;;;;;;;42.22;26.40;;;;;;;23.88;61.99;101853.47;4960295;28;20437;-70
2021/06/27 08:39:46;;;;;;;41.58;25.98;;;;;;;23.72;61.50;101855.50;4956848;28;20145;-69
2021/06/27 08:42:19;;;;;;;41.50;25.80;;;;;;;24.05;60.91;101852.22;4959170;28;20071;-73
2021/06/27 08:44:47;;;;;;;;;;;;;;;23.99;60.44;101848.09;4959093;28;20123;-75
2021/06/27 08:47:16;;;;;;;43.00;26.02;;;;;;;24.03;60.42;101841.44;4959172;28;20366;-75
2021/06/27 08:49:49;;;;;;;39.42;25.67;;;;;;;24.07;60.51;101838.50;4960149;28;20070;-74
2021/06/27 08:52:18;;;;;;;43.05;27.20;;;;;;;24.23;58.77;101844.56;4958750;28;20063;-75
2021/06/27 08:54:47;;;;;;;44.97;27.10;;;;;;;24.31;58.69;101833.06;4959198;28;20066;-74
2021/06/27 08:57:17;;;;;;;40.75;26.70;;;;;;;24.56;58.70;101843.91;4955951;28;20148;-71
2021/06/27 08:59:46;;;;;;;41.35;26.33;;;;;;;24.54;57.84;101826.78;4959952;28;20458;-72
2021/06/27 09:02:15;;;;;;;40.38;26.23;;;;;;;24.85;58.18;101824.44;4956789;28;20094;-75
2021/06/27 09:04:44;;;;;;;40.83;25.52;;;;;;;24.44;58.69;101822.97;4962174;28;20067;-74
2021/06/27 09:07:29;;;;;;;44.08;27.77;;;;;;;24.33;59.33;101812.88;4958722;28;20058;-72
2021/06/27 09:10:01;;;;;;;41.25;25.83;;;;;;;24.60;58.78;101815.41;4958314;28;20370;-75
2021/06/27 09:12:45;;;;;;;41.72;26.27;;;;;;;24.59;58.18;101813.66;4955742;28;20062;-72
2021/06/27 09:15:14;;;;;;;39.78;25.42;;;;;;;24.94;56.60;101814.66;4955846;28;20074;-73
2021/06/27 09:17:44;;;;;;;42.38;26.17;;;;;;;24.95;56.37;101811.81;4956461;28;20395;-73
2021/06/27 09:20:12;;;;;;;41.60;25.77;;;;;;;25.19;55.90;101810.03;4958320;28;20048;-73
2021/06/27 09:22:42;;;;;;;39.58;27.02;;;;;;;24.95;55.41;101800.91;4958063;28;20352;-73
2021/06/27 09:25:21;;;;;;;39.17;25.98;;;;;;;24.50;57.13;101808.00;4961347;28;20351;-71
2021/06/27 09:28:11;;;;;;;42.33;26.98;;;;;;;24.06;58.54;101807.63;4955168;28;20397;-72
2021/06/27 09:30:41;;;;;;;42.22;25.48;;;;;;;24.20;59.07;101799.28;4958971;28;20112;-72
2021/06/27 09:33:11;;;;;;;38.53;25.52;;;;;;;23.89;59.50;101795.25;4953703;28;20147;-72
2021/06/27 09:35:46;;;;;;;41.95;26.73;;;;;;;24.07;58.87;101801.19;4955823;28;20063;-72
2021/06/27 09:38:22;;;;;;;39.42;25.42;;;;;;;24.13;59.60;101805.34;4955208;28;20130;-72
2021/06/27 09:40:51;;;;;;;40.65;24.40;;;;;;;24.14;59.20;101796.16;4955208;28;20602;-72
2021/06/27 09:43:21;;;;;;;35.65;23.50;;;;;;;24.63;58.63;101794.34;4955852;28;20520;-71
2021/06/27 09:45:51;;;;;;;39.08;25.73;;;;;;;25.10;56.21;101793.38;4956329;28;20066;-72
2021/06/27 09:48:19;;;;;;;37.58;24.30;;;;;;;25.76;55.32;101791.81;4955126;28;20142;-73
2021/06/27 09:50:47;;;;;;;35.70;24.00;;;;;;;26.23;54.12;101787.91;4955488;28;20059;-73
2021/06/27 09:53:36;;;;;;;38.25;25.00;;;;;;;26.15;54.69;101773.16;4954643;28;20094;-70
2021/06/27 09:56:06;;;;;;;38.20;24.00;;;;;;;26.67;53.28;101778.84;4957449;28;20075;-69
2021/06/27 09:58:36;;;;;;;38.53;24.58;;;;;;;26.86;51.98;101772.66;4952404;28;20067;-70
2021/06/27 10:01:18;;;;;;;32.80;21.15;;;;;;;27.43;51.79;101776.78;4958414;28;20059;-69
2021/06/27 10:03:52;;;;;;;36.13;24.38;;;;;;;27.45;51.17;101777.50;4957749;28;20105;-70
2021/06/27 10:06:19;;;;;;;37.03;23.73;;;;;;;27.50;50.69;101764.25;4958945;28;20058;-70
2021/06/27 10:08:47;;;;;;;39.03;24.92;;;;;;;27.42;50.97;101765.94;4957657;28;20262;-70
2021/06/27 10:11:18;;;;;;;36.88;24.75;;;;;;;27.50;52.48;101763.41;4957932;28;20052;-68
2021/06/27 10:13:48;;;;;;;39.30;26.27;;;;;;;27.32;51.10;101768.63;4958159;28;20090;-68
2021/06/27 10:16:28;;;;;;;38.90;25.73;;;;;;;27.35;51.41;101765.63;4958631;28;20066;-68
2021/06/27 10:18:57;;;;;;;35.03;23.98;;;;;;;27.60;50.86;101761.56;4952745;28;20070;-69
2021/06/27 10:21:25;;;;;;;41.53;27.30;;;;;;;27.30;51.23;101763.28;4959824;28;20062;-69
2021/06/27 10:23:53;;;;;;;39.13;25.90;;;;;;;27.73;51.40;101753.94;4954334;28;20062;-68
2021/06/27 10:26:24;;;;;;;37.05;25.42;;;;;;;27.85;51.23;101756.56;4955910;28;20039;-69
2021/06/27 10:28:54;;;;;;;43.25;26.17;;;;;;;27.21;52.53;101759.47;4956566;28;20500;-69
2021/06/27 10:31:24;;;;;;;38.47;25.20;;;;;;;27.44;51.73;101769.41;4955776;28;20066;-69
2021/06/27 10:33:52;;;;;;;39.25;25.67;;;;;;;27.55;51.44;101748.25;4956047;28;20113;-69
2021/06/27 10:36:29;;;;;;;37.72;24.95;;;;;;;27.86;50.88;101753.69;4957322;28;20074;-69
2021/06/27 10:38:58;;;;;;;37.03;24.15;;;;;;;27.90;51.42;101754.28;4954974;28;20071;-70
2021/06/27 10:41:48;;;;;;;39.05;25.40;;;;;;;27.87;50.45;101749.06;4957161;28;20434;-69
2021/06/27 10:44:18;;;;;;;38.88;26.27;;;;;;;27.77;50.92;101749.06;4949484;28;20145;-69
2021/06/27 10:46:48;;;;;;;38.60;25.55;;;;;;;27.88;50.26;101743.44;4955340;28;20071;-69
2021/06/27 10:49:58;;;;;;;37.67;23.58;;;;;;;28.20;50.04;101744.28;4957490;28;20067;-70
2021/06/27 10:52:30;;;;;;;;;;;;;;;28.14;50.72;101740.19;4953970;28;20149;-70
2021/06/27 10:55:26;;;;;;;39.40;25.33;;;;;;;27.85;50.74;101737.38;4957637;28;20336;-69
2021/06/27 10:58:06;;;;;;;35.67;24.17;;;;;;;27.75;51.50;101731.88;4923359;28;20066;-70
2021/06/27 11:01:05;;;;;;;35.60;23.52;;;;;;;27.86;51.25;101736.38;4959422;28;20089;-70
2021/06/27 11:03:35;;;;;;;35.45;24.55;;;;;;;27.96;51.58;101729.09;4960812;28;20105;-69
2021/06/27 11:06:05;;;;;;;35.08;22.48;;;;;;;28.79;50.63;101720.41;4956232;28;20066;-71
2021/06/27 11:08:38;;;;;;;28.13;19.95;;;;;;;29.00;49.87;101715.59;4956847;28;20462;-69
2021/06/27 11:11:10;;;;;;;;;;;;;;;28.60;48.96;101718.56;4952351;28;20458;-69
2021/06/27 11:13:39;;;;;;;28.52;20.25;;;;;;;28.84;48.85;101712.59;4959080;28;20368;-69
2021/06/27 11:16:17;;;;;;;32.42;21.92;;;;;;;28.81;49.22;101711.03;4952753;28;20077;-69
2021/06/27 11:18:47;;;;;;;34.22;22.10;;;;;;;29.16;47.99;101709.50;4956638;28;20113;-69